createdAt,value
2019-06-08T00:01:16.736Z,15.33
2019-06-08T00:03:43.147Z,15.57
2019-06-08T00:06:09.735Z,16.83
2019-06-08T00:08:35.601Z,16.17
2019-06-08T00:11:01.510Z,15.37
2019-06-08T00:13:27.970Z,16.40
2019-06-08T00:15:53.851Z,16.43
2019-06-08T00:18:19.787Z,16.37
2019-06-08T00:20:45.673Z,16.07
2019-06-08T00:23:11.543Z,14.87
2019-06-08T00:25:37.882Z,15.17
2019-06-08T00:28:03.739Z,16.00
2019-06-08T00:30:30.711Z,15.83
2019-06-08T00:32:57.039Z,15.70
2019-06-08T00:35:22.988Z,16.63
2019-06-08T00:37:49.464Z,18.57
2019-06-08T00:40:15.713Z,19.77
2019-06-08T00:42:42.948Z,18.50
2019-06-08T00:45:09.013Z,19.13
2019-06-08T00:47:47.066Z,19.57
2019-06-08T00:50:05.272Z,22.23
2019-06-08T00:52:31.156Z,20.10
2019-06-08T00:54:57.016Z,19.57
2019-06-08T00:57:23.849Z,21.20
2019-06-08T00:59:49.823Z,18.03
2019-06-08T01:02:15.746Z,19.10
2019-06-08T01:04:41.946Z,18.93
2019-06-08T01:07:07.837Z,18.40
2019-06-08T01:09:33.704Z,20.40
2019-06-08T01:11:59.599Z,19.90
2019-06-08T01:14:25.457Z,21.40
2019-06-08T01:16:51.456Z,20.77
2019-06-08T01:19:17.331Z,20.70
2019-06-08T01:21:43.393Z,21.03
2019-06-08T01:24:09.263Z,19.07
2019-06-08T01:26:35.153Z,17.27
2019-06-08T01:29:01.673Z,15.60
2019-06-08T01:31:28.356Z,17.03
2019-06-08T01:33:54.348Z,16.73
2019-06-08T01:36:20.687Z,15.13
2019-06-08T01:38:46.732Z,13.03
2019-06-08T01:41:12.596Z,12.93
2019-06-08T01:43:39.215Z,11.17
2019-06-08T01:46:05.675Z,10.60
2019-06-08T01:48:32.353Z,10.60
2019-06-08T01:50:58.365Z,10.63
2019-06-08T01:53:24.892Z,9.93
2019-06-08T01:55:50.756Z,9.53
2019-06-08T01:58:17.321Z,8.60
2019-06-08T02:00:43.276Z,8.00
2019-06-08T02:03:09.198Z,8.27
2019-06-08T02:05:35.074Z,7.43
2019-06-08T02:08:00.962Z,7.30
2019-06-08T02:10:26.946Z,7.00
2019-06-08T02:12:52.842Z,6.87
2019-06-08T02:15:19.212Z,6.63
2019-06-08T02:17:45.418Z,6.10
2019-06-08T02:20:13.376Z,5.80
2019-06-08T02:22:39.448Z,5.30
2019-06-08T02:25:06.320Z,5.60
2019-06-08T02:27:33.572Z,5.50
2019-06-08T02:29:59.491Z,5.40
2019-06-08T02:32:25.383Z,5.33
2019-06-08T02:34:51.247Z,5.20
2019-06-08T02:37:17.120Z,5.00
2019-06-08T02:39:43.031Z,4.63
2019-06-08T02:42:08.884Z,5.17
2019-06-08T02:44:36.290Z,4.60
2019-06-08T02:47:02.315Z,3.93
2019-06-08T02:49:29.106Z,4.83
2019-06-08T02:51:55.171Z,4.27
2019-06-08T02:54:21.553Z,4.20
2019-06-08T02:56:47.829Z,4.13
2019-06-08T02:59:14.405Z,3.70
2019-06-08T03:01:40.839Z,3.43
2019-06-08T03:04:06.824Z,3.63
2019-06-08T03:06:35.085Z,3.70
2019-06-08T03:09:04.169Z,3.53
2019-06-08T03:11:30.537Z,3.63
2019-06-08T03:13:56.512Z,3.37
2019-06-08T03:16:22.378Z,3.60
2019-06-08T03:18:48.260Z,3.23
2019-06-08T03:21:14.119Z,2.83
2019-06-08T03:23:41.513Z,2.83
2019-06-08T03:26:07.875Z,2.60
2019-06-08T03:28:35.607Z,2.53
2019-06-08T03:31:01.523Z,2.50
2019-06-08T03:33:27.675Z,2.47
2019-06-08T03:35:57.581Z,2.53
2019-06-08T03:38:21.378Z,2.50
2019-06-08T03:40:47.234Z,2.10
2019-06-08T03:43:13.097Z,2.40
2019-06-08T03:45:40.660Z,2.57
2019-06-08T03:48:06.649Z,2.20
2019-06-08T03:50:32.535Z,2.30
2019-06-08T03:52:58.394Z,2.57
2019-06-08T03:55:24.284Z,1.80
2019-06-08T03:57:50.275Z,2.00
2019-06-08T04:00:16.361Z,2.20
2019-06-08T04:02:43.734Z,2.33
2019-06-08T04:05:10.283Z,2.07
2019-06-08T04:07:37.583Z,1.83
2019-06-08T04:10:04.730Z,2.30
2019-06-08T04:12:30.590Z,1.70
2019-06-08T04:14:56.481Z,2.20
2019-06-08T04:17:22.381Z,2.00
2019-06-08T04:20:09.069Z,1.97
2019-06-08T04:22:15.991Z,2.13
2019-06-08T04:24:42.429Z,1.97
2019-06-08T04:27:08.731Z,2.00
2019-06-08T04:29:34.627Z,1.83
2019-06-08T04:32:00.483Z,2.00
2019-06-08T04:34:26.400Z,1.53
2019-06-08T04:36:52.244Z,1.70
2019-06-08T04:39:18.629Z,1.70
2019-06-08T04:41:45.411Z,1.80
2019-06-08T04:44:12.258Z,1.73
2019-06-08T04:46:38.302Z,1.90
2019-06-08T04:49:04.250Z,1.90
2019-06-08T04:51:30.105Z,2.07
2019-06-08T04:53:56.029Z,1.80
2019-06-08T04:56:21.921Z,1.87
2019-06-08T04:58:48.986Z,1.70
2019-06-08T05:01:15.582Z,2.00
2019-06-08T05:03:43.303Z,2.00
2019-06-08T05:06:09.250Z,1.73
2019-06-08T05:08:35.134Z,1.50
2019-06-08T05:11:01.029Z,1.70
2019-06-08T05:13:26.893Z,1.60
2019-06-08T05:15:52.773Z,1.53
2019-06-08T05:18:18.648Z,1.83
2019-06-08T05:20:47.237Z,1.70
2019-06-08T05:23:12.290Z,1.83
2019-06-08T05:25:39.096Z,1.40
2019-06-08T05:28:05.033Z,1.67
2019-06-08T05:30:30.916Z,1.67
2019-06-08T05:32:56.778Z,1.60
2019-06-08T05:35:22.696Z,1.47
2019-06-08T05:37:49.718Z,1.60
2019-06-08T05:40:15.969Z,1.50
2019-06-08T05:42:42.773Z,1.60
2019-06-08T05:45:09.782Z,1.70
2019-06-08T05:47:35.760Z,1.60
2019-06-08T05:50:03.820Z,1.60
2019-06-08T05:52:29.706Z,1.70
2019-06-08T05:54:55.574Z,1.70
2019-06-08T05:57:21.461Z,2.10
2019-06-08T05:59:48.158Z,1.60
2019-06-08T06:02:14.142Z,2.10
2019-06-08T06:04:40.872Z,1.43
2019-06-08T06:07:06.890Z,1.60
2019-06-08T06:09:32.964Z,1.40
2019-06-08T06:11:58.844Z,1.30
2019-06-08T06:14:24.701Z,1.77
2019-06-08T06:16:51.341Z,1.50
2019-06-08T06:19:17.255Z,1.47
2019-06-08T06:21:43.150Z,1.40
2019-06-08T06:24:09.003Z,1.60
2019-06-08T06:26:34.892Z,1.50
2019-06-08T06:29:00.760Z,1.20
2019-06-08T06:31:26.736Z,1.50
2019-06-08T06:33:52.599Z,1.53
2019-06-08T06:36:18.473Z,1.80
2019-06-08T06:38:45.829Z,1.60
2019-06-08T06:41:11.827Z,1.47
2019-06-08T06:43:37.714Z,1.70
2019-06-08T06:46:03.571Z,1.40
2019-06-08T06:48:29.456Z,1.57
2019-06-08T06:50:55.320Z,1.60
2019-06-08T06:53:21.196Z,1.60
2019-06-08T06:55:47.057Z,1.50
2019-06-08T06:58:12.946Z,1.37
2019-06-08T07:00:38.812Z,1.77
2019-06-08T07:03:04.754Z,1.57
2019-06-08T07:05:30.602Z,1.53
2019-06-08T07:07:56.585Z,1.50
2019-06-08T07:10:22.445Z,1.20
2019-06-08T07:12:48.666Z,1.60
2019-06-08T07:15:18.389Z,1.50
2019-06-08T07:17:44.271Z,1.63
2019-06-08T07:20:10.229Z,1.60
2019-06-08T07:22:36.118Z,1.30
2019-06-08T07:25:02.879Z,1.30
2019-06-08T07:27:28.776Z,1.63
2019-06-08T07:29:54.882Z,1.20
2019-06-08T07:32:20.806Z,1.40
2019-06-08T07:34:47.815Z,1.43
2019-06-08T07:37:14.470Z,1.50
2019-06-08T07:39:40.363Z,1.40
2019-06-08T07:42:06.228Z,1.33
2019-06-08T07:44:32.109Z,1.70
2019-06-08T07:46:57.970Z,1.30
2019-06-08T07:49:23.857Z,1.37
2019-06-08T07:52:06.001Z,1.67
2019-06-08T07:54:17.513Z,1.37
2019-06-08T07:56:43.375Z,1.20
2019-06-08T07:59:09.263Z,1.47
2019-06-08T08:01:36.503Z,1.67
2019-06-08T08:04:02.645Z,1.40
2019-06-08T08:06:30.581Z,1.27
2019-06-08T08:08:56.861Z,1.50
2019-06-08T08:11:23.537Z,1.33
2019-06-08T08:13:51.149Z,1.63
2019-06-08T08:16:17.200Z,1.60
2019-06-08T08:18:43.083Z,1.50
2019-06-08T08:21:21.387Z,1.47
2019-06-08T08:23:38.242Z,1.40
2019-06-08T08:26:04.201Z,1.50
2019-06-08T08:28:30.110Z,1.50
2019-06-08T08:30:58.593Z,1.40
2019-06-08T08:33:23.741Z,1.47
2019-06-08T08:35:51.116Z,1.47
2019-06-08T08:38:17.786Z,1.60
2019-06-08T08:40:43.683Z,1.40
2019-06-08T08:43:09.729Z,1.60
2019-06-08T08:45:37.346Z,1.40
2019-06-08T08:48:21.200Z,1.83
2019-06-08T08:50:31.082Z,1.50
2019-06-08T08:53:00.308Z,1.60
2019-06-08T08:55:24.862Z,1.50
2019-06-08T08:57:52.152Z,1.73
2019-06-08T09:00:18.911Z,1.60
2019-06-08T09:02:44.798Z,1.80
2019-06-08T09:05:11.021Z,1.50
2019-06-08T09:07:38.564Z,1.67
2019-06-08T09:10:05.234Z,1.53
2019-06-08T09:12:31.596Z,1.50
2019-06-08T09:15:00.218Z,1.70
2019-06-08T09:17:27.876Z,1.50
2019-06-08T09:19:54.073Z,1.60
2019-06-08T09:22:20.680Z,1.53
2019-06-08T09:24:48.563Z,1.87
2019-06-08T09:27:14.558Z,1.70
2019-06-08T09:29:40.903Z,1.80
2019-06-08T09:32:08.172Z,1.90
2019-06-08T09:34:35.321Z,1.37
2019-06-08T09:37:02.954Z,1.60
2019-06-08T09:39:29.229Z,1.97
2019-06-08T09:41:58.198Z,1.70
2019-06-08T09:44:23.123Z,2.00
2019-06-08T09:46:48.998Z,1.97
2019-06-08T09:49:15.565Z,1.70
2019-06-08T09:51:41.452Z,1.70
2019-06-08T09:54:11.741Z,1.70
2019-06-08T09:56:37.808Z,1.70
2019-06-08T09:59:06.098Z,1.70
2019-06-08T10:01:31.253Z,2.03
2019-06-08T10:04:00.824Z,1.83
2019-06-08T10:06:24.990Z,1.60
2019-06-08T10:08:50.856Z,1.60
2019-06-08T10:11:16.779Z,1.90
2019-06-08T10:13:43.500Z,2.00
2019-06-08T10:16:10.449Z,2.00
2019-06-08T10:18:38.591Z,1.70
2019-06-08T10:21:06.142Z,1.90
2019-06-08T10:23:34.715Z,1.80
2019-06-08T10:26:01.372Z,1.60
2019-06-08T10:28:28.997Z,1.70
2019-06-08T10:30:56.048Z,1.70
2019-06-08T10:33:23.050Z,1.73
2019-06-08T10:35:48.949Z,1.80
2019-06-08T10:38:14.847Z,1.70
2019-06-08T10:41:07.118Z,2.07
2019-06-08T10:43:28.883Z,2.20
2019-06-08T10:45:54.721Z,2.00
2019-06-08T10:48:20.611Z,1.70
2019-06-08T10:50:47.497Z,1.93
2019-06-08T10:53:16.312Z,1.90
2019-06-08T10:55:41.326Z,1.90
2019-06-08T10:58:09.563Z,1.80
2019-06-08T11:00:34.951Z,1.80
2019-06-08T11:03:03.244Z,1.90
2019-06-08T11:05:28.635Z,2.17
2019-06-08T11:07:54.526Z,2.10
2019-06-08T11:10:20.401Z,1.90
2019-06-08T11:12:48.372Z,1.80
2019-06-08T11:15:14.130Z,2.03
2019-06-08T11:17:40.014Z,1.93
2019-06-08T11:20:07.408Z,1.80
2019-06-08T11:22:33.786Z,2.03
2019-06-08T11:25:00.750Z,1.80
2019-06-08T11:27:28.497Z,2.10
2019-06-08T11:29:54.511Z,1.80
2019-06-08T11:32:20.385Z,1.83
2019-06-08T11:34:48.669Z,1.70
2019-06-08T11:37:18.521Z,1.90
2019-06-08T11:39:41.803Z,2.30
2019-06-08T11:42:10.661Z,1.90
2019-06-08T11:44:35.490Z,2.03
2019-06-08T11:47:02.538Z,1.70
2019-06-08T11:49:28.478Z,1.73
2019-06-08T11:51:54.376Z,1.80
2019-06-08T11:54:33.231Z,1.73
2019-06-08T11:56:49.899Z,1.67
2019-06-08T11:59:15.984Z,2.07
2019-06-08T12:01:41.883Z,1.87
2019-06-08T12:04:08.178Z,2.10
2019-06-08T12:06:34.130Z,1.87
2019-06-08T12:09:00.311Z,1.70
2019-06-08T12:11:28.026Z,1.87
2019-06-08T12:13:53.988Z,2.10
2019-06-08T12:16:22.286Z,2.50
2019-06-08T12:18:49.290Z,2.00
2019-06-08T12:21:15.399Z,1.80
2019-06-08T12:23:41.295Z,2.00
2019-06-08T12:26:08.177Z,2.03
2019-06-08T12:28:34.148Z,1.80
2019-06-08T12:31:01.097Z,1.80
2019-06-08T12:33:30.347Z,2.07
2019-06-08T12:35:54.865Z,1.60
2019-06-08T12:38:20.752Z,1.73
2019-06-08T12:40:48.560Z,1.80
2019-06-08T12:43:15.756Z,1.83
2019-06-08T12:45:41.901Z,2.00
2019-06-08T12:48:10.326Z,1.90
2019-06-08T12:50:35.665Z,1.87
2019-06-08T12:53:02.248Z,1.73
2019-06-08T12:55:28.196Z,2.27
2019-06-08T12:57:55.000Z,2.00
2019-06-08T13:00:21.729Z,3.40
2019-06-08T13:02:51.017Z,2.20
2019-06-08T13:05:21.118Z,2.20
2019-06-08T13:07:47.394Z,1.70
2019-06-08T13:10:13.257Z,1.93
2019-06-08T13:12:40.967Z,2.03
2019-06-08T13:15:08.442Z,2.20
2019-06-08T13:17:34.933Z,1.90
2019-06-08T13:20:00.818Z,1.50
2019-06-08T13:22:29.037Z,1.70
2019-06-08T13:24:54.543Z,1.70
2019-06-08T13:27:22.789Z,1.90
2019-06-08T13:29:48.928Z,1.60
2019-06-08T13:32:16.512Z,1.87
2019-06-08T13:34:44.315Z,2.20
2019-06-08T13:37:10.582Z,2.03
2019-06-08T13:39:39.887Z,1.80
2019-06-08T13:42:07.767Z,2.17
2019-06-08T13:44:37.686Z,2.00
2019-06-08T13:47:03.481Z,2.23
2019-06-08T13:49:30.869Z,2.00
2019-06-08T13:51:58.406Z,2.23
2019-06-08T13:54:24.440Z,1.90
2019-06-08T13:56:50.687Z,1.60
2019-06-08T13:59:23.092Z,1.87
2019-06-08T14:01:47.788Z,1.73
2019-06-08T14:04:15.020Z,1.87
2019-06-08T14:06:44.929Z,2.00
2019-06-08T14:09:10.797Z,1.70
2019-06-08T14:11:36.658Z,1.73
2019-06-08T14:14:02.651Z,1.83
2019-06-08T14:16:29.727Z,1.80
2019-06-08T14:18:55.803Z,1.73
2019-06-08T14:21:29.432Z,1.83
2019-06-08T14:23:49.529Z,2.20
2019-06-08T14:26:15.385Z,2.13
2019-06-08T14:28:41.292Z,1.97
2019-06-08T14:31:08.120Z,2.10
2019-06-08T14:33:34.931Z,1.70
2019-06-08T14:36:01.602Z,1.57
2019-06-08T14:38:35.184Z,1.87
2019-06-08T14:40:55.292Z,2.33
2019-06-08T14:43:21.306Z,2.07
2019-06-08T14:45:47.572Z,1.80
2019-06-08T14:48:13.703Z,2.17
2019-06-08T14:50:41.013Z,1.77
2019-06-08T14:53:08.632Z,2.13
2019-06-08T14:55:34.694Z,1.83
2019-06-08T14:58:00.519Z,1.90
2019-06-08T15:00:27.768Z,1.90
2019-06-08T15:02:53.789Z,1.80
2019-06-08T15:05:19.992Z,2.20
2019-06-08T15:07:47.798Z,1.47
2019-06-08T15:10:14.051Z,1.87
2019-06-08T15:12:39.920Z,1.97
2019-06-08T15:15:08.310Z,1.77
2019-06-08T15:17:33.775Z,2.20
2019-06-08T15:19:59.666Z,1.93
2019-06-08T15:22:26.812Z,2.57
2019-06-08T15:24:53.323Z,2.03
2019-06-08T15:27:22.638Z,1.70
2019-06-08T15:29:47.808Z,1.73
2019-06-08T15:32:13.728Z,2.03
2019-06-08T15:34:39.614Z,1.60
2019-06-08T15:37:05.476Z,2.03
2019-06-08T15:39:33.879Z,1.90
2019-06-08T15:42:00.212Z,2.13
2019-06-08T15:44:28.642Z,1.70
2019-06-08T15:46:54.001Z,2.13
2019-06-08T15:49:19.959Z,3.17
2019-06-08T15:51:47.982Z,1.90
2019-06-08T15:54:13.605Z,1.70
2019-06-08T15:56:48.566Z,2.23
2019-06-08T15:59:09.239Z,1.73
2019-06-08T16:01:35.016Z,2.43
2019-06-08T16:04:03.956Z,2.20
2019-06-08T16:06:29.673Z,1.90
2019-06-08T16:08:55.574Z,2.30
2019-06-08T16:11:21.432Z,1.80
2019-06-08T16:13:47.320Z,2.07
2019-06-08T16:16:13.183Z,2.40
2019-06-08T16:18:39.068Z,2.00
2019-06-08T16:21:04.928Z,2.00
2019-06-08T16:23:31.808Z,2.10
2019-06-08T16:25:57.776Z,2.27
2019-06-08T16:28:23.664Z,1.90
2019-06-08T16:30:49.524Z,2.23
2019-06-08T16:33:15.411Z,2.10
2019-06-08T16:35:41.279Z,2.30
2019-06-08T16:38:07.175Z,1.90
2019-06-08T16:40:34.273Z,2.03
2019-06-08T16:43:00.253Z,1.90
2019-06-08T16:45:26.986Z,2.03
2019-06-08T16:47:52.924Z,2.20
2019-06-08T16:50:24.487Z,2.23
2019-06-08T16:52:46.653Z,1.70
2019-06-08T16:55:12.550Z,1.70
2019-06-08T16:57:41.098Z,1.60
2019-06-08T17:00:30.073Z,2.00
2019-06-08T17:02:35.123Z,2.00
2019-06-08T17:05:01.682Z,1.83
2019-06-08T17:07:27.740Z,1.70
2019-06-08T17:09:53.637Z,1.70
2019-06-08T17:12:19.500Z,1.80
2019-06-08T17:14:45.392Z,1.90
2019-06-08T17:17:11.258Z,1.77
2019-06-08T17:19:38.293Z,2.23
2019-06-08T17:22:04.660Z,2.30
2019-06-08T17:24:30.548Z,2.03
2019-06-08T17:26:56.768Z,1.90
2019-06-08T17:29:22.657Z,1.90
2019-06-08T17:31:48.619Z,2.23
2019-06-08T17:34:14.513Z,1.90
2019-06-08T17:36:40.717Z,2.13
2019-06-08T17:39:06.679Z,2.20
2019-06-08T17:41:32.549Z,1.83
2019-06-08T17:43:58.430Z,1.63
2019-06-08T17:46:24.290Z,1.87
2019-06-08T17:48:50.154Z,1.73
2019-06-08T17:51:16.039Z,1.87
2019-06-08T17:53:43.304Z,1.80
2019-06-08T17:56:09.494Z,1.67
2019-06-08T17:58:35.361Z,1.97
2019-06-08T18:01:01.244Z,1.70
2019-06-08T18:03:27.936Z,2.27
2019-06-08T18:05:53.921Z,1.90
2019-06-08T18:08:19.786Z,1.80
2019-06-08T18:10:45.683Z,1.80
2019-06-08T18:13:11.544Z,2.10
2019-06-08T18:15:39.972Z,2.27
2019-06-08T18:18:05.189Z,1.70
2019-06-08T18:20:31.085Z,2.00
2019-06-08T18:22:57.855Z,1.90
2019-06-08T18:25:23.948Z,1.80
2019-06-08T18:28:05.559Z,1.93
2019-06-08T18:30:19.163Z,1.60
2019-06-08T18:32:46.346Z,1.90
2019-06-08T18:35:12.854Z,2.00
2019-06-08T18:37:40.899Z,1.73
2019-06-08T18:40:07.262Z,1.90
2019-06-08T18:42:33.162Z,1.57
2019-06-08T18:44:59.047Z,1.70
2019-06-08T18:47:27.266Z,1.70
2019-06-08T18:49:52.700Z,1.90
2019-06-08T18:52:18.577Z,1.63
2019-06-08T18:54:45.763Z,1.80
2019-06-08T18:57:12.362Z,1.90
2019-06-08T18:59:43.151Z,1.67
2019-06-08T19:02:07.997Z,1.70
2019-06-08T19:04:33.974Z,1.80
2019-06-08T19:07:01.337Z,2.00
2019-06-08T19:09:27.555Z,1.90
2019-06-08T19:11:53.440Z,1.87
2019-06-08T19:14:20.833Z,2.00
2019-06-08T19:16:51.434Z,2.03
2019-06-08T19:19:14.649Z,1.70
2019-06-08T19:21:40.802Z,1.90
2019-06-08T19:24:09.624Z,1.87
2019-06-08T19:26:34.488Z,1.70
2019-06-08T19:29:00.572Z,1.67
2019-06-08T19:31:27.643Z,1.70
2019-06-08T19:33:53.685Z,1.80
2019-06-08T19:36:19.539Z,1.60
2019-06-08T19:38:48.052Z,1.70
2019-06-08T19:41:13.158Z,2.20
2019-06-08T19:43:41.508Z,1.83
2019-06-08T19:46:07.273Z,2.03
2019-06-08T19:48:33.209Z,1.70
2019-06-08T19:50:59.058Z,1.83
2019-06-08T19:53:24.951Z,1.93
2019-06-08T19:55:53.959Z,1.97
2019-06-08T19:58:18.609Z,2.00
2019-06-08T20:00:48.094Z,2.17
2019-06-08T20:03:12.437Z,1.90
2019-06-08T20:05:38.292Z,2.00
2019-06-08T20:08:04.176Z,2.00
2019-06-08T20:10:30.039Z,1.83
2019-06-08T20:12:57.619Z,2.10
2019-06-08T20:15:23.805Z,1.73
2019-06-08T20:17:51.442Z,2.00
2019-06-08T20:20:18.364Z,2.00
2019-06-08T20:22:44.354Z,1.90
2019-06-08T20:25:10.796Z,2.00
2019-06-08T20:27:37.279Z,1.80
2019-06-08T20:30:08.703Z,2.47
2019-06-08T20:32:32.058Z,1.80
2019-06-08T20:34:57.936Z,2.20
2019-06-08T20:37:23.808Z,2.27
2019-06-08T20:40:02.791Z,4.13
2019-06-08T20:42:17.505Z,6.30
2019-06-08T20:44:43.993Z,6.23
2019-06-08T20:47:09.859Z,5.60
2019-06-08T20:49:37.263Z,5.00
2019-06-08T20:52:03.310Z,4.80
2019-06-08T20:54:29.199Z,3.30
2019-06-08T20:56:55.066Z,2.70
2019-06-08T20:59:30.085Z,2.13
2019-06-08T21:01:50.490Z,2.70
2019-06-08T21:04:18.186Z,2.30
2019-06-08T21:06:44.100Z,2.10
2019-06-08T21:09:09.989Z,2.30
2019-06-08T21:11:37.945Z,2.07
2019-06-08T21:14:04.144Z,2.30
2019-06-08T21:16:30.001Z,2.27
2019-06-08T21:18:57.912Z,2.67
2019-06-08T21:21:23.648Z,2.77
2019-06-08T21:23:53.980Z,2.43
2019-06-08T21:26:18.406Z,2.17
2019-06-08T21:28:47.148Z,2.40
2019-06-08T21:31:12.176Z,2.20
2019-06-08T21:33:38.098Z,2.10
2019-06-08T21:36:05.193Z,2.37
2019-06-08T21:38:31.793Z,2.40
2019-06-08T21:41:02.076Z,2.30
2019-06-08T21:43:27.718Z,2.13
2019-06-08T21:45:54.637Z,2.47
2019-06-08T21:48:20.996Z,2.10
2019-06-08T21:50:48.963Z,2.17
2019-06-08T21:53:14.655Z,2.37
2019-06-08T21:55:40.545Z,2.83
2019-06-08T21:58:08.098Z,2.30
2019-06-08T22:00:42.185Z,2.10
2019-06-08T22:03:02.743Z,2.30
2019-06-08T22:05:28.655Z,2.37
2019-06-08T22:07:54.518Z,2.20
2019-06-08T22:10:20.412Z,2.30
2019-06-08T22:12:48.388Z,2.40
2019-06-08T22:15:14.268Z,2.40
2019-06-08T22:17:40.133Z,2.27
2019-06-08T22:20:08.039Z,2.17
2019-06-08T22:22:34.178Z,2.20
2019-06-08T22:25:01.149Z,2.07
2019-06-08T22:27:27.342Z,2.73
2019-06-08T22:29:53.618Z,1.90
2019-06-08T22:32:19.577Z,2.10
2019-06-08T22:34:47.566Z,2.40
2019-06-08T22:37:13.329Z,2.33
2019-06-08T22:39:39.190Z,2.10
2019-06-08T22:42:05.080Z,2.30
2019-06-08T22:44:30.937Z,2.10
2019-06-08T22:46:59.844Z,2.07
2019-06-08T22:49:24.593Z,2.03
2019-06-08T22:51:50.480Z,2.23
2019-06-08T22:54:17.062Z,2.37
2019-06-08T22:56:43.032Z,2.70
2019-06-08T22:59:09.194Z,2.07
2019-06-08T23:01:35.287Z,2.00
2019-06-08T23:04:03.875Z,2.17
2019-06-08T23:06:28.983Z,2.10
2019-06-08T23:08:57.022Z,2.20
2019-06-08T23:11:22.624Z,2.10
2019-06-08T23:13:48.482Z,2.60
2019-06-08T23:16:14.345Z,2.30
2019-06-08T23:18:40.232Z,2.00
2019-06-08T23:21:08.729Z,2.40
2019-06-08T23:23:33.870Z,2.10
2019-06-08T23:26:02.108Z,2.07
2019-06-08T23:28:28.282Z,2.17
2019-06-08T23:31:07.953Z,1.90
2019-06-08T23:33:21.985Z,1.93
2019-06-08T23:36:21.717Z,2.00
2019-06-08T23:38:17.275Z,2.30
2019-06-08T23:40:43.310Z,1.90
2019-06-08T23:43:09.210Z,2.10
2019-06-08T23:45:35.080Z,2.10
2019-06-08T23:48:02.574Z,1.80
2019-06-08T23:50:28.669Z,2.43
2019-06-08T23:52:54.556Z,2.27
2019-06-08T23:55:20.412Z,2.17
2019-06-08T23:57:46.304Z,1.80
